METAR E TAF
METAR FOR LICA
ADDS - METARS form results

(1632 UTC 20 January 2021)
Data provider http://aviationweather.gov/metar/data/
 
METAR text: LICA 201620Z AUTO 11003KT 9999 NCD 09/05 Q1025
Conditions at: LICA (LAMEZIA TERME , IT) observed 1620 UTC 20 January 2021
Temperature: 9.0°C (48°F)
Dewpoint: 5.0°C (41°F) [RH = 76%]
Pressure (altimeter): 30.27 inches Hg (1025.0 mb)
Winds: from the ESE (110 degrees) at 3 MPH (3 knots; 1.5 m/s)
Visibility: 6 or more miles (10+ km)
Ceiling: at least 12,000 feet AGL
Clouds: sky clear below 12,000 feet AGL
Weather: no significant weather observed at this time

METAR text: LICA 201550Z AUTO 19002KT 9999 NCD 13/05 Q1025
Conditions at: LICA (LAMEZIA TERME , IT) observed 1550 UTC 20 January 2021
Temperature: 13.0°C (55°F)
Dewpoint: 5.0°C (41°F) [RH = 58%]
Pressure (altimeter): 30.27 inches Hg (1025.0 mb)
Winds: from the S (190 degrees) at 2 MPH (2 knots; 1.0 m/s)
Visibility: 6 or more miles (10+ km)
Ceiling: at least 12,000 feet AGL
Clouds: sky clear below 12,000 feet AGL
Weather: no significant weather observed at this time

Forecast for: LICA (LAMEZIA TERME , IT)
Text: TAF LICA 201100Z 2012/2112 VRB05KT 9999 SCT040
Forecast period: 1200 to 1800 UTC 20 January 2021
Forecast type: FROM: standard forecast or significant change
Winds: variable direction winds at 6 MPH (5 knots; 2.6 m/s)
Visibility: 6 or more miles (10+ km)
Ceiling: at least 12,000 feet AGL
Clouds: scattered clouds at 4000 feet AGL
Weather: no significant weather forecast for this period
Text: BECMG 2018/2020 08010KT
Forecast period: 1800 UTC 20 January 2021 to 1200 UTC 21 January 2021
Forecast type: BECOMING: Conditions expected to become as follows by 2000 UTC 20 January 2021
Winds: from the E (80 degrees) at 12 MPH (10 knots; 5.1 m/s)
Visibility: 6 or more miles (10+ km)
Ceiling: at least 12,000 feet AGL
Clouds: scattered clouds at 4000 feet AGL
Weather: no significant weather forecast for this period

 AIRPORT MAP

 RUNWAY INFORMATION

 AIRPORT FREQUENCIES
Type APP Nome APP Frequency 118.8 MHZ
Type TWR Nome TWR Frequency 119.7 MHZ

 AIRPORT NEAR NAVIGATION AIDS



Powered by Virtual Airlines Manager [v2.6.2]